• Join FlightAware (Why Join?)
  • Login
  • US Flag 
10:49PM EDT


 

Airport Tracker/Info


-or-


 

Live Flight TrackerFlight Track Log ✈ EJA982 ✈ 29-Jul-2013 ✈ KTLH - KRKD

Flight Track Log - Related Links

Times and Time Zones

All times are in EDT time to prevent confusion due to time zone crossing. See the EJA982 flight status page for this flight to view local times or setup timezone preferences in your user account.

Time Position Orientation Groundspeed Altitude Reporting Facility
EDT Latitude Longitude Course Direction KTS MPH feet Rate Location/Type
09:52AM 30.4789 -84.2086 88° East 283 326 9,800  Level Jacksonville Center
09:53AM 30.4844 -84.0808 87° East 336 387 10,700 1,500 Climbing Jacksonville Center
09:54AM 30.4875 -83.9508 88° East 372 428 12,800 1,980 Climbing Jacksonville Center
09:55AM 30.4886 -83.8231 89° East 388 447 14,700 1,980 Climbing Jacksonville Center
09:56AM 30.4500 -83.3191 90° East  Level FlightAware Approximate
09:56AM 30.4894 -83.6931 90° East 401 461 16,800  Level Jacksonville Center
09:57AM 30.4624 -83.1468 84° East  Level FlightAware Approximate
09:57AM 30.4922 -83.5628 89° East 401 461 18,600  Level Jacksonville Center
09:58AM 30.4950 -83.4325 89° East 401 461 20,600 1,980 Climbing Jacksonville Center
09:59AM 30.4975 -83.3047 89° East 401 461 22,600 1,860 Climbing Jacksonville Center
10:00AM 30.4981 -83.1769 90° East 401 461 24,400 1,800 Climbing Jacksonville Center
10:01AM 30.5503 -83.0711 60° Northeast 372 428 26,200 1,860 Climbing Jacksonville Center
10:02AM 30.6403 -82.9939 36° Northeast 367 422 28,100 1,920 Climbing Jacksonville Center
10:03AM 30.7239 -82.9192 38° Northeast 367 422 30,100 1,980 Climbing Jacksonville Center
10:04AM 30.8114 -82.8467 35° Northeast 375 432 32,100 2,040 Climbing Jacksonville Center
10:05AM 30.9011 -82.7692 37° Northeast 388 447 34,200 1,500 Climbing Jacksonville Center
10:06AM 30.9908 -82.6889 37° Northeast 393 452 35,200 660 Climbing Jacksonville Center
10:07AM 31.0764 -82.6161 36° Northeast 398 458 35,600 600 Climbing Jacksonville Center
10:08AM 31.1783 -82.5283 36° Northeast 428 493 36,500 900 Climbing Jacksonville Center
10:09AM 31.2825 -82.4356 37° Northeast 452 520 37,500 1,200 Climbing Jacksonville Center
10:10AM 31.3886 -82.3400 38° Northeast 466 536 39,000 1,440 Climbing Jacksonville Center
10:11AM 31.4925 -82.2519 36° Northeast 472 543 40,400 960 Climbing Jacksonville Center
10:12AM 31.5944 -82.1633 37° Northeast 457 526 41,000 300 Climbing Jacksonville Center
10:13AM 31.6942 -82.0697 39° Northeast 465 535 41,000  Level Jacksonville Center
10:14AM 31.8103 -81.9586 39° Northeast 477 549 41,000  Level Jacksonville Center
10:15AM 31.8992 -81.8647 42° Northeast 482 555 41,000  Level Jacksonville Center
10:16AM 32.0111 -81.7508 41° Northeast 482 555 41,000  Level Jacksonville Center
10:17AM 32.1125 -81.6442 42° Northeast 482 555 41,000  Level Jacksonville Center
10:18AM 32.2053 -81.5494 41° Northeast 482 555 41,000  Level Jacksonville Center
10:19AM 32.3189 -81.4322 41° Northeast 482 555 41,000  Level Jacksonville Center
10:20AM 32.4178 -81.3200 44° Northeast 482 555 41,000  Level Jacksonville Center
10:21AM 32.5250 -81.2122 40° Northeast 489 563 41,000  Level Jacksonville Center
10:22AM 32.6153 -81.1144 42° Northeast 495 570 41,000  Level Jacksonville Center
10:23AM 32.7264 -80.9936 42° Northeast 489 563 41,000  Level Jacksonville Center
10:24AM 32.8311 -80.8803 42° Northeast 494 568 41,000  Level Jacksonville Center
10:25AM 32.9378 -80.7689 41° Northeast 494 568 41,000  Level Jacksonville Center
10:26AM 33.0422 -80.6550 42° Northeast 499 574 41,000  Level Jacksonville Center
10:27AM 33.1489 -80.5431 41° Northeast 505 581 41,000  Level Jacksonville Center
10:28AM 33.2594 -80.4283 41° Northeast 511 588 41,000  Level Jacksonville Center
10:29AM 33.3656 -80.3086 43° Northeast 511 588 41,000  Level Jacksonville Center
10:30AM 33.4572 -80.2039 44° Northeast 511 588 41,000  Level Jacksonville Center
10:31AM 33.5653 -80.0858 42° Northeast 511 588 41,000  Level Jacksonville Center
10:32AM 33.6711 -79.9653 43° Northeast 511 588 41,000  Level Jacksonville Center
10:33AM 33.7769 -79.8517 42° Northeast 511 588 41,000  Level Jacksonville Center
10:34AM 33.8822 -79.7306 44° Northeast 517 595 41,000  Level Jacksonville Center
10:35AM 33.9919 -79.6114 42° Northeast 517 595 41,000  Level Jacksonville Center
10:37AM 34.1800 -79.3975 43° Northeast 514 592 41,000  Level Washington Center
10:38AM 34.2906 -79.2719 43° Northeast 522 601 41,000  Level Washington Center
10:39AM 34.3964 -79.1508 43° Northeast 529 609 41,000  Level Washington Center
10:40AM 34.5150 -79.0222 42° Northeast 529 609 41,000  Level Washington Center
10:41AM 34.6119 -78.9053 45° Northeast 529 609 41,000  Level Washington Center
10:42AM 34.7219 -78.7808 43° Northeast 524 603 41,000  Level Washington Center
10:43AM 34.8314 -78.6586 42° Northeast 530 610 41,000  Level Washington Center
10:44AM 34.9369 -78.5333 44° Northeast 530 610 41,000  Level Washington Center
10:45AM 35.0442 -78.4081 44° Northeast 530 610 41,000  Level Washington Center
10:46AM 35.1556 -78.2797 43° Northeast 530 610 41,000  Level Washington Center
10:47AM 35.2669 -78.1511 43° Northeast 530 610 41,000  Level Washington Center
10:48AM 35.3761 -78.0247 43° Northeast 535 616 41,000  Level Washington Center
10:49AM 35.4872 -77.8931 44° Northeast 540 621 41,000  Level Washington Center
10:50AM 35.5958 -77.7658 44° Northeast 540 621 41,000  Level Washington Center
10:51AM 35.7067 -77.6383 43° Northeast 540 621 41,000  Level Washington Center
10:52AM 35.8300 -77.4903 44° Northeast 545 627 41,000  Level Washington Center
10:53AM 35.9406 -77.3622 43° Northeast 540 621 41,000  Level Washington Center
10:54AM 36.0511 -77.2286 44° Northeast 540 621 41,000  Level Washington Center
10:55AM 36.1444 -77.1122 45° Northeast 540 621 41,000  Level Washington Center
10:56AM 36.2544 -76.9778 45° Northeast 534 615 41,000  Level Washington Center
10:57AM 36.3644 -76.8481 44° Northeast 539 620 41,000  Level Washington Center
10:58AM 36.4764 -76.7131 44° Northeast 539 620 41,000  Level Washington Center
10:59AM 36.5858 -76.5800 44° Northeast 539 620 41,000  Level Washington Center
11:00AM 36.6975 -76.4442 44° Northeast 539 620 41,000  Level Washington Center
11:01AM 36.8050 -76.3028 46° Northeast 544 626 41,000  Level Washington Center
11:02AM 36.9244 -76.1792 40° Northeast 544 626 41,000  Level Washington Center
11:03AM 37.0750 -76.1100 20° North 549 632 41,000  Level Washington Center
11:04AM 37.2275 -76.0250 24° Northeast 543 625 41,000  Level Washington Center
11:05AM 37.3697 -75.9447 24° Northeast 544 626 41,000 -60 Level Washington Center
11:06AM 37.4950 -75.8328 35° Northeast 544 626 40,900  Descending Washington Center
11:07AM 37.6183 -75.7150 37° Northeast 549 632 41,000  Climbing Washington Center
11:08AM 37.7436 -75.5969 37° Northeast 549 632 41,000  Level Washington Center
11:09AM 37.8644 -75.4761 38° Northeast 554 638 41,000  Level Washington Center
11:10AM 37.9894 -75.3547 37° Northeast 559 643 41,000  Level Washington Center
11:11AM 38.1142 -75.2328 38° Northeast 559 643 41,000  Level Washington Center
11:12AM 38.2367 -75.1053 39° Northeast 559 643 41,000  Level Washington Center
11:13AM 38.3614 -74.9881 36° Northeast 564 649 41,000  Level Washington Center
11:14AM 38.4878 -74.8703 36° Northeast 564 649 41,000  Level Washington Center
11:15AM 38.6119 -74.7389 40° Northeast 564 649 41,000  Level Washington Center
11:16AM 38.7342 -74.6150 38° Northeast 564 649 41,000  Level Washington Center
11:17AM 38.8375 -74.5150 37° Northeast 564 649 41,000  Level Washington Center
11:18AM 38.9694 -74.3689 41° Northeast 564 649 41,000  Level Washington Center
11:19AM 39.0975 -74.2489 36° Northeast 564 649 41,000  Level Washington Center
11:21AM 39.3136 -74.0244 39° Northeast 555 639 41,000  Level Boston Center
11:22AM 39.4364 -73.8931 40° Northeast 560 644 41,000  Level Boston Center
11:23AM 39.5647 -73.7719 36° Northeast 565 650 41,000  Level Boston Center
11:24AM 39.7125 -73.6106 40° Northeast 575 662 41,000  Level Boston Center
11:25AM 39.8344 -73.4803 39° Northeast 575 662 41,000  Level Boston Center
11:26AM 39.9628 -73.3578 36° Northeast 570 656 41,000  Level Boston Center
11:27AM 40.0908 -73.2375 36° Northeast 570 656 41,000  Level Boston Center
11:28AM 40.2208 -73.1114 37° Northeast 570 656 41,000  Level Boston Center
11:29AM 40.3486 -72.9900 36° Northeast 576 663 41,000  Level Boston Center
11:30AM 40.4825 -72.8603 36° Northeast 576 663 41,000  Level Boston Center
11:31AM 40.6078 -72.7353 37° Northeast 576 663 41,000  Level Boston Center
11:32AM 40.7331 -72.6017 39° Northeast 576 663 41,000  Level Boston Center
11:33AM 40.8708 -72.4675 36° Northeast 591 680 41,000  Level Boston Center
11:34AM 41.0042 -72.3467 34° Northeast 597 687 41,000  Level Boston Center
11:35AM 41.1331 -72.2225 36° Northeast 586 674 41,000  Level Boston Center
11:36AM 41.2767 -72.0894 35° Northeast 580 667 41,000  Level Boston Center
11:37AM 41.3950 -71.9697 37° Northeast 574 661 41,000  Level Boston Center
11:38AM 41.5339 -71.8300 37° Northeast 574 661 41,000  Level Boston Center
11:39AM 41.6375 -71.7233 38° Northeast 574 661 41,000  Level Boston Center
11:40AM 41.7719 -71.5883 37° Northeast 574 661 41,000 -1,020 Level Boston Center
11:41AM 41.9003 -71.4667 35° Northeast 512 589 39,000 -1,080 Descending Boston Center
11:42AM 42.0611 -71.3019 37° Northeast 564 649 39,000  Level Boston Center
11:43AM 42.1994 -71.1594 37° Northeast 600 690 39,000  Level Boston Center
11:44AM 42.3331 -71.0217 37° Northeast 605 696 39,000  Level Boston Center
11:45AM 42.4628 -70.8808 39° Northeast 611 703 39,000 -720 Level Boston Center
11:46AM 42.5817 -70.7567 38° Northeast 606 697 37,600 -2,220 Descending Boston Center
11:47AM 42.7169 -70.6089 39° Northeast 606 697 34,600 -3,240 Descending Boston Center
11:48AM 42.8542 -70.4575 39° Northeast 611 703 31,100 -3,420 Descending Boston Center
11:49AM 42.9808 -70.3172 39° Northeast 604 695 27,800 -3,300 Descending Boston Center
11:50AM 43.1033 -70.1822 39° Northeast 582 670 24,700 -3,180 Descending Boston Center
11:51AM 43.2153 -70.0525 40° Northeast 553 636 21,600 -3,120 Descending Boston Center
11:52AM 43.3375 -69.9194 38° Northeast 512 589 18,500 -2,820 Descending Boston Center
11:53AM 43.4433 -69.8033 39° Northeast 491 565 16,000 -2,640 Descending Boston Center
11:54AM 43.5386 -69.6961 39° Northeast 452 520 13,200 -2,820 Descending Boston Center
11:55AM 43.6319 -69.5886 40° Northeast 447 514 10,400 -1,680 Descending Boston Center
11:56AM 43.7253 -69.4894 38° Northeast 434 499 10,000 -480 Descending Boston Center
11:57AM 43.8153 -69.4158 31° Northeast 405 466 9,500 -1,200 Descending Boston Center
11:58AM 43.8953 -69.3686 23° Northeast 330 380 7,600 -2,220 Descending Boston Center
11:59AM 43.9658 -69.3622 North 283 326 5,000 -1,800 Descending Boston Center
12:00PM 44.0367 -69.3586 North 240 276 4,000 -1,080 Descending Boston Center
12:01PM 44.0842 -69.3386 17° North 201 231 2,900 -780 Descending Boston Center
12:02PM 44.1008 -69.2656 72° East 166 191 2,500 -780 Descending Boston Center
12:03PM 44.0886 -69.1997 104° East 161 185 1,400 -720 Descending Boston Center
12:04PM 44.0850 -69.1508 96° East 154 177 1,000 4,320 Descending Boston Center
12:05PM 44.0831 -69.0814 92° East 154 177 11,000 4,500 Climbing Boston Center
12:06PM 44.0811 -69.0122 92° East 154 177 11,000  Level Boston Center
12:08PM 44.0601 -69.0993 251° West  Level Estimated
12:15PM 44.0601 -69.0993 28° Northeast  Level Estimated
12:16PM 44.0601 -69.0993 28° Northeast  Level Estimated
12:17PM 44.0601 -69.0993 28° Northeast  Level Estimated
12:18PM 44.0601 -69.0993 28° Northeast  Level Estimated
12:19PM 44.0601 -69.0993 28° Northeast  Level Estimated
12:20PM 44.0601 -69.0993 28° Northeast  Level Estimated